Maraa, Brazil
Current Conditions -  °F | °C
As of 11:00 AM on Monday 24 Nov 2014 (Local Time) from SBUA Reporting Station
Broken Clouds Broken Clouds  
Wind Chill: 93°   Ceiling: 8000
Heat Index: 105°   Visibility: 6mi
Dew Point: 75°   Wind: 7mph
Humidity: 56%   Direction: 100°E
Pressure: 29.83"   Gusts: NA
Location:  1.86°S, 65.58°W
Report Text: SBUA 241500Z 10006KT 9999 SCT020 FEW027TCU BKN080 34/24 Q1010
Loading
Personal Weather Stations






























Interactive Weather Map New forecast layout! Learn more

10-Day Weather Forecast

Advertisements
Track Severe Weather on mobile